createdAt,value
2017-08-13T00:00:34.376Z,0
2017-08-13T00:01:35.791Z,0
2017-08-13T00:02:57.289Z,0
2017-08-13T00:03:58.697Z,0
2017-08-13T00:05:20.217Z,0
2017-08-13T00:06:21.627Z,0
2017-08-13T00:07:43.125Z,0
2017-08-13T00:08:44.533Z,0
2017-08-13T00:10:06.051Z,0
2017-08-13T00:11:07.460Z,0
2017-08-13T00:12:28.955Z,0
2017-08-13T00:13:30.365Z,0
2017-08-13T00:14:51.885Z,0
2017-08-13T00:15:53.296Z,0
2017-08-13T00:17:14.794Z,0
2017-08-13T00:18:16.204Z,0
2017-08-13T00:19:37.718Z,0
2017-08-13T00:20:39.130Z,0
2017-08-13T00:22:00.625Z,0
2017-08-13T00:23:02.042Z,0
2017-08-13T00:24:23.569Z,0
2017-08-13T00:25:24.979Z,0
2017-08-13T00:26:46.474Z,0
2017-08-13T00:27:47.884Z,0
2017-08-13T00:29:09.404Z,0
2017-08-13T00:30:10.815Z,0
2017-08-13T00:31:32.311Z,0
2017-08-13T00:32:33.721Z,0
2017-08-13T00:33:55.217Z,0
2017-08-13T00:34:56.626Z,0
2017-08-13T00:36:18.144Z,0
2017-08-13T00:37:19.554Z,0
2017-08-13T00:38:41.053Z,0
2017-08-13T00:39:42.458Z,0
2017-08-13T00:41:03.972Z,0
2017-08-13T00:42:05.388Z,0
2017-08-13T00:43:26.883Z,0
2017-08-13T00:44:28.295Z,0
2017-08-13T00:45:49.812Z,0
2017-08-13T00:46:51.228Z,0
2017-08-13T00:48:12.720Z,0
2017-08-13T00:49:14.128Z,0
2017-08-13T00:50:35.646Z,0
2017-08-13T00:51:37.054Z,0
2017-08-13T00:52:58.554Z,0
2017-08-13T00:53:59.962Z,0
2017-08-13T00:55:21.476Z,0
2017-08-13T00:56:22.886Z,0
2017-08-13T00:57:44.380Z,0
2017-08-13T00:58:45.789Z,0
2017-08-13T01:00:07.312Z,0
2017-08-13T01:01:08.719Z,0
2017-08-13T01:02:30.212Z,0
2017-08-13T01:03:31.628Z,0
2017-08-13T01:04:53.142Z,0
2017-08-13T01:05:54.554Z,0
2017-08-13T01:07:16.545Z,0
2017-08-13T01:08:17.954Z,0
2017-08-13T01:09:39.470Z,0
2017-08-13T01:10:40.886Z,0
2017-08-13T01:12:02.381Z,0
2017-08-13T01:13:03.789Z,0
2017-08-13T01:14:25.305Z,0
2017-08-13T01:15:26.715Z,0
2017-08-13T01:16:48.228Z,0
2017-08-13T01:17:49.639Z,0
2017-08-13T01:19:11.134Z,0
2017-08-13T01:20:12.548Z,0
2017-08-13T01:21:34.063Z,0
2017-08-13T01:22:35.473Z,0
2017-08-13T01:23:56.967Z,0
2017-08-13T01:24:58.378Z,0
2017-08-13T01:26:19.896Z,0
2017-08-13T01:27:21.306Z,0
2017-08-13T01:28:42.804Z,0
2017-08-13T01:29:44.211Z,0
2017-08-13T01:31:05.727Z,0
2017-08-13T01:32:07.138Z,0
2017-08-13T01:33:28.633Z,0
2017-08-13T01:34:30.049Z,0
2017-08-13T01:35:51.565Z,0
2017-08-13T01:36:52.975Z,0
2017-08-13T01:38:14.475Z,0
2017-08-13T01:39:15.879Z,0
2017-08-13T01:40:37.397Z,0
2017-08-13T01:41:38.807Z,0
2017-08-13T01:43:00.308Z,0
2017-08-13T01:44:01.717Z,0
2017-08-13T01:45:23.231Z,0
2017-08-13T01:46:24.638Z,0
2017-08-13T01:47:46.132Z,0
2017-08-13T01:48:47.545Z,0
2017-08-13T01:50:09.067Z,0
2017-08-13T01:51:10.471Z,0
2017-08-13T01:52:31.967Z,0
2017-08-13T01:53:33.376Z,0
2017-08-13T01:54:54.898Z,0
2017-08-13T01:55:56.307Z,0
2017-08-13T01:57:17.814Z,0
2017-08-13T01:58:19.224Z,0
2017-08-13T01:59:40.720Z,0
2017-08-13T02:00:42.128Z,0
2017-08-13T02:02:03.649Z,0
2017-08-13T02:03:05.057Z,0
2017-08-13T02:04:26.559Z,0
2017-08-13T02:05:27.965Z,0
2017-08-13T02:06:49.479Z,0
2017-08-13T02:07:50.891Z,0
2017-08-13T02:09:12.385Z,0
2017-08-13T02:10:13.796Z,0
2017-08-13T02:11:35.311Z,0
2017-08-13T02:12:36.721Z,0
2017-08-13T02:13:58.212Z,0
2017-08-13T02:14:59.623Z,0
2017-08-13T02:16:21.141Z,0
2017-08-13T02:17:22.552Z,0
2017-08-13T02:18:44.046Z,0
2017-08-13T02:19:45.458Z,0
2017-08-13T02:21:06.970Z,0
2017-08-13T02:22:08.382Z,0
2017-08-13T02:23:29.878Z,0
2017-08-13T02:24:31.284Z,0
2017-08-13T02:25:52.800Z,0
2017-08-13T02:26:54.211Z,0
2017-08-13T02:28:15.705Z,0
2017-08-13T02:29:17.112Z,0
2017-08-13T02:30:38.628Z,0
2017-08-13T02:31:40.038Z,0
2017-08-13T02:33:01.534Z,0
2017-08-13T02:34:02.942Z,0
2017-08-13T02:35:24.458Z,0
2017-08-13T02:36:25.867Z,0
2017-08-13T02:37:47.361Z,0
2017-08-13T02:38:48.769Z,0
2017-08-13T02:40:10.286Z,0
2017-08-13T02:41:11.696Z,0
2017-08-13T02:42:33.189Z,0
2017-08-13T02:43:34.598Z,0
2017-08-13T02:44:56.094Z,0
2017-08-13T02:45:57.503Z,0
2017-08-13T02:47:19.017Z,0
2017-08-13T02:48:20.427Z,0
2017-08-13T02:49:41.923Z,0
2017-08-13T02:50:43.331Z,0
2017-08-13T02:52:04.847Z,0
2017-08-13T02:53:06.264Z,0
2017-08-13T02:54:27.751Z,0
2017-08-13T02:55:29.160Z,0
2017-08-13T02:56:50.676Z,0
2017-08-13T02:57:52.084Z,0
2017-08-13T02:59:13.581Z,0
2017-08-13T03:00:14.989Z,0
2017-08-13T03:01:36.505Z,0
2017-08-13T03:02:37.914Z,0
2017-08-13T03:03:59.408Z,0
2017-08-13T03:05:00.815Z,0
2017-08-13T03:06:22.335Z,0
2017-08-13T03:07:23.746Z,0
2017-08-13T03:08:45.242Z,0
2017-08-13T03:09:46.649Z,0
2017-08-13T03:11:08.172Z,0
2017-08-13T03:12:09.580Z,0
2017-08-13T03:13:31.077Z,0
2017-08-13T03:14:32.487Z,0
2017-08-13T03:15:54.005Z,0
2017-08-13T03:16:55.415Z,0
2017-08-13T03:18:16.914Z,0
2017-08-13T03:19:18.321Z,0
2017-08-13T03:20:39.981Z,0
2017-08-13T03:21:41.390Z,0
2017-08-13T03:23:02.885Z,0
2017-08-13T03:24:04.296Z,0
2017-08-13T03:25:25.835Z,0
2017-08-13T03:26:27.241Z,0
2017-08-13T03:27:48.739Z,0
2017-08-13T03:28:50.150Z,0
2017-08-13T03:30:11.656Z,0
2017-08-13T03:31:13.062Z,0
2017-08-13T03:32:34.576Z,0
2017-08-13T03:33:35.986Z,0
2017-08-13T03:34:57.477Z,0
2017-08-13T03:35:58.887Z,0
2017-08-13T03:37:20.403Z,0
2017-08-13T03:38:21.814Z,0
2017-08-13T03:39:43.309Z,0
2017-08-13T03:40:44.717Z,0
2017-08-13T03:42:06.239Z,0
2017-08-13T03:43:07.648Z,0
2017-08-13T03:44:29.146Z,0
2017-08-13T03:45:30.554Z,0
2017-08-13T03:46:52.068Z,0
2017-08-13T03:47:53.479Z,0
2017-08-13T03:49:14.978Z,0
2017-08-13T03:50:16.388Z,0
2017-08-13T03:51:38.043Z,0
2017-08-13T03:52:39.449Z,0
2017-08-13T03:54:00.951Z,0
2017-08-13T03:55:02.358Z,0
2017-08-13T03:56:23.871Z,0
2017-08-13T03:57:25.282Z,0
2017-08-13T03:58:46.783Z,0
2017-08-13T03:59:48.196Z,5
2017-08-13T04:01:09.718Z,5
2017-08-13T04:02:11.128Z,5
2017-08-13T04:03:32.622Z,5
2017-08-13T04:04:34.034Z,5
2017-08-13T04:05:55.550Z,5
2017-08-13T04:06:56.962Z,5
2017-08-13T04:08:18.464Z,11
2017-08-13T04:09:19.873Z,11
2017-08-13T04:10:41.371Z,11
2017-08-13T04:11:42.783Z,11
2017-08-13T04:13:05.293Z,11
2017-08-13T04:14:06.705Z,11
2017-08-13T04:15:28.205Z,16
2017-08-13T04:16:29.615Z,16
2017-08-13T04:17:51.131Z,16
2017-08-13T04:18:52.542Z,22
2017-08-13T04:20:14.040Z,22
2017-08-13T04:21:15.449Z,22
2017-08-13T04:22:36.965Z,28
2017-08-13T04:23:38.378Z,28
2017-08-13T04:24:59.875Z,33
2017-08-13T04:26:01.284Z,39
2017-08-13T04:27:22.802Z,39
2017-08-13T04:28:24.218Z,39
2017-08-13T04:29:45.718Z,45
2017-08-13T04:30:47.128Z,45
2017-08-13T04:32:08.642Z,45
2017-08-13T04:33:10.057Z,45
2017-08-13T04:34:31.554Z,50
2017-08-13T04:35:32.966Z,50
2017-08-13T04:36:54.481Z,50
2017-08-13T04:37:55.894Z,45
2017-08-13T04:39:17.392Z,50
2017-08-13T04:40:18.804Z,61
2017-08-13T04:41:40.322Z,67
2017-08-13T04:42:41.736Z,67
2017-08-13T04:44:03.233Z,73
2017-08-13T04:45:04.645Z,78
2017-08-13T04:46:26.164Z,78
2017-08-13T04:47:27.577Z,84
2017-08-13T04:48:49.077Z,84
2017-08-13T04:49:50.483Z,84
2017-08-13T04:51:13.065Z,84
2017-08-13T04:52:14.557Z,90
2017-08-13T04:53:36.110Z,90
2017-08-13T04:54:37.662Z,95
2017-08-13T04:55:59.159Z,106
2017-08-13T04:57:00.679Z,106
2017-08-13T04:58:22.420Z,106
2017-08-13T04:59:24.143Z,118
2017-08-13T05:00:45.628Z,123
2017-08-13T05:01:47.043Z,123
2017-08-13T05:03:08.561Z,123
2017-08-13T05:04:09.973Z,106
2017-08-13T05:05:31.482Z,112
2017-08-13T05:06:32.897Z,112
2017-08-13T05:07:54.417Z,106
2017-08-13T05:08:55.832Z,106
2017-08-13T05:10:17.336Z,101
2017-08-13T05:11:18.745Z,106
2017-08-13T05:12:40.305Z,112
2017-08-13T05:13:41.698Z,112
2017-08-13T05:15:03.201Z,112
2017-08-13T05:16:04.616Z,118
2017-08-13T05:17:26.138Z,129
2017-08-13T05:18:27.551Z,129
2017-08-13T05:19:49.057Z,123
2017-08-13T05:20:50.466Z,118
2017-08-13T05:22:11.990Z,123
2017-08-13T05:23:13.402Z,129
2017-08-13T05:24:34.908Z,129
2017-08-13T05:25:36.322Z,123
2017-08-13T05:26:57.846Z,118
2017-08-13T05:27:59.260Z,123
2017-08-13T05:29:20.763Z,123
2017-08-13T05:30:22.174Z,118
2017-08-13T05:31:43.721Z,123
2017-08-13T05:32:45.139Z,135
2017-08-13T05:34:06.636Z,174
2017-08-13T05:35:08.052Z,157
2017-08-13T05:36:29.596Z,174
2017-08-13T05:37:31.008Z,146
2017-08-13T05:38:52.508Z,185
2017-08-13T05:39:53.924Z,180
2017-08-13T05:41:15.433Z,180
2017-08-13T05:42:16.848Z,202
2017-08-13T05:43:38.374Z,196
2017-08-13T05:44:39.787Z,180
2017-08-13T05:46:01.295Z,185
2017-08-13T05:47:02.710Z,185
2017-08-13T05:48:24.254Z,196
2017-08-13T05:49:25.692Z,219
2017-08-13T05:50:47.213Z,202
2017-08-13T05:51:48.637Z,202
2017-08-13T05:53:10.195Z,202
2017-08-13T05:54:11.611Z,202
2017-08-13T05:55:33.153Z,202
2017-08-13T05:56:34.569Z,202
2017-08-13T05:57:56.125Z,208
2017-08-13T05:58:57.539Z,213
2017-08-13T06:00:19.043Z,213
2017-08-13T06:01:20.458Z,213
2017-08-13T06:02:41.984Z,213
2017-08-13T06:03:43.396Z,219
2017-08-13T06:05:04.958Z,286
2017-08-13T06:06:06.379Z,427
2017-08-13T06:07:27.910Z,663
2017-08-13T06:08:29.325Z,680
2017-08-13T06:09:50.855Z,675
2017-08-13T06:10:52.268Z,680
2017-08-13T06:12:13.800Z,686
2017-08-13T06:13:15.221Z,697
2017-08-13T06:14:36.723Z,691
2017-08-13T06:15:38.140Z,703
2017-08-13T06:16:59.705Z,720
2017-08-13T06:18:01.124Z,731
2017-08-13T06:19:22.630Z,748
2017-08-13T06:20:24.088Z,759
2017-08-13T06:21:45.769Z,787
2017-08-13T06:22:47.190Z,793
2017-08-13T06:24:08.723Z,787
2017-08-13T06:25:10.143Z,781
2017-08-13T06:26:31.671Z,781
2017-08-13T06:27:33.095Z,793
2017-08-13T06:28:54.631Z,815
2017-08-13T06:29:56.053Z,815
2017-08-13T06:31:17.568Z,815
2017-08-13T06:32:18.991Z,815
2017-08-13T06:33:40.523Z,826
2017-08-13T06:34:41.943Z,815
2017-08-13T06:36:03.453Z,838
2017-08-13T06:37:04.875Z,843
2017-08-13T06:38:27.405Z,866
2017-08-13T06:39:28.830Z,900
2017-08-13T06:40:50.344Z,1361
2017-08-13T06:41:51.785Z,2593
2017-08-13T06:43:13.299Z,2795
2017-08-13T06:44:14.729Z,2722
2017-08-13T06:45:36.243Z,2812
2017-08-13T06:46:37.669Z,2863
2017-08-13T06:47:59.205Z,2908
2017-08-13T06:49:00.631Z,2846
2017-08-13T06:50:22.147Z,2947
2017-08-13T06:51:23.571Z,2930
2017-08-13T06:52:45.106Z,2812
2017-08-13T06:53:46.532Z,2812
2017-08-13T06:55:08.049Z,2778
2017-08-13T06:56:09.548Z,2806
2017-08-13T06:57:31.104Z,2964
2017-08-13T06:58:32.528Z,2981
2017-08-13T06:59:54.051Z,2913
2017-08-13T07:00:55.478Z,2930
2017-08-13T07:02:17.047Z,2953
2017-08-13T07:03:18.488Z,3009
2017-08-13T07:04:40.010Z,2913
2017-08-13T07:05:41.431Z,2829
2017-08-13T07:07:02.954Z,2705
2017-08-13T07:08:04.381Z,2666
2017-08-13T07:09:25.912Z,2025
2017-08-13T07:10:27.337Z,742
2017-08-13T07:11:48.854Z,258
2017-08-13T07:12:50.278Z,253
2017-08-13T07:14:11.811Z,253
2017-08-13T07:15:13.235Z,264
2017-08-13T07:16:34.750Z,270
2017-08-13T07:17:36.170Z,286
2017-08-13T07:18:57.707Z,270
2017-08-13T07:19:59.127Z,281
2017-08-13T07:21:20.651Z,315
2017-08-13T07:22:22.079Z,292
2017-08-13T07:23:43.613Z,281
2017-08-13T07:24:45.035Z,275
2017-08-13T07:26:06.547Z,309
2017-08-13T07:27:07.967Z,354
2017-08-13T07:28:29.503Z,393
2017-08-13T07:29:30.923Z,388
2017-08-13T07:30:52.434Z,427
2017-08-13T07:31:53.852Z,393
2017-08-13T07:33:15.382Z,399
2017-08-13T07:34:16.802Z,433
2017-08-13T07:35:38.312Z,444
2017-08-13T07:36:39.730Z,427
2017-08-13T07:38:01.260Z,371
2017-08-13T07:39:02.681Z,354
2017-08-13T07:40:24.192Z,348
2017-08-13T07:41:25.610Z,343
2017-08-13T07:42:47.137Z,365
2017-08-13T07:43:48.556Z,405
2017-08-13T07:45:10.069Z,433
2017-08-13T07:46:11.488Z,472
2017-08-13T07:47:32.999Z,421
2017-08-13T07:48:34.418Z,371
2017-08-13T07:49:55.946Z,343
2017-08-13T07:50:57.366Z,303
2017-08-13T07:52:18.875Z,326
2017-08-13T07:53:20.292Z,343
2017-08-13T07:54:41.819Z,399
2017-08-13T07:55:43.239Z,421
2017-08-13T07:57:04.745Z,421
2017-08-13T07:58:06.164Z,399
2017-08-13T07:59:27.691Z,371
2017-08-13T08:00:29.110Z,337
2017-08-13T08:01:50.618Z,281
2017-08-13T08:02:52.038Z,275
2017-08-13T08:04:13.568Z,320
2017-08-13T08:05:14.987Z,371
2017-08-13T08:06:36.498Z,405
2017-08-13T08:07:37.920Z,399
2017-08-13T08:08:59.461Z,399
2017-08-13T08:10:00.882Z,405
2017-08-13T08:11:22.397Z,444
2017-08-13T08:12:23.818Z,399
2017-08-13T08:13:45.347Z,393
2017-08-13T08:14:46.766Z,393
2017-08-13T08:16:08.276Z,360
2017-08-13T08:17:09.692Z,348
2017-08-13T08:18:31.222Z,320
2017-08-13T08:19:32.642Z,348
2017-08-13T08:20:54.150Z,405
2017-08-13T08:21:55.567Z,466
2017-08-13T08:23:56.546Z,466
2017-08-13T08:25:37.427Z,393
2017-08-13T08:26:38.861Z,393
2017-08-13T08:28:00.379Z,388
2017-08-13T08:29:01.793Z,405
2017-08-13T08:30:23.300Z,421
2017-08-13T08:31:24.719Z,438
2017-08-13T08:32:46.229Z,466
2017-08-13T08:33:47.648Z,438
2017-08-13T08:35:09.174Z,343
2017-08-13T08:36:10.593Z,331
2017-08-13T08:37:32.102Z,376
2017-08-13T08:38:33.523Z,376
2017-08-13T08:39:55.049Z,376
2017-08-13T08:40:56.470Z,416
2017-08-13T08:42:17.979Z,450
2017-08-13T08:43:19.396Z,478
2017-08-13T08:44:40.923Z,489
2017-08-13T08:45:42.344Z,489
2017-08-13T08:47:03.851Z,478
2017-08-13T08:48:05.271Z,444
2017-08-13T08:49:26.800Z,371
2017-08-13T08:50:28.219Z,365
2017-08-13T08:51:49.726Z,405
2017-08-13T08:52:51.146Z,388
2017-08-13T08:54:13.672Z,421
2017-08-13T08:55:15.127Z,495
2017-08-13T08:56:36.641Z,483
2017-08-13T08:57:38.060Z,376
2017-08-13T08:58:59.592Z,354
2017-08-13T09:00:01.011Z,376
2017-08-13T09:01:22.523Z,393
2017-08-13T09:02:23.947Z,331
2017-08-13T09:03:45.469Z,270
2017-08-13T09:04:46.889Z,281
2017-08-13T09:06:08.783Z,286
2017-08-13T09:07:10.180Z,264
2017-08-13T09:08:31.711Z,253
2017-08-13T09:09:33.130Z,241
2017-08-13T09:10:54.636Z,258
2017-08-13T09:11:56.055Z,258
2017-08-13T09:13:17.588Z,281
2017-08-13T09:14:19.012Z,303
2017-08-13T09:15:40.518Z,315
2017-08-13T09:16:41.935Z,292
2017-08-13T09:18:03.443Z,258
2017-08-13T09:19:04.869Z,241
2017-08-13T09:20:26.396Z,230
2017-08-13T09:21:27.816Z,264
2017-08-13T09:22:49.323Z,281
2017-08-13T09:23:50.747Z,281
2017-08-13T09:25:12.268Z,281
2017-08-13T09:26:13.691Z,275
2017-08-13T09:27:35.201Z,286
2017-08-13T09:28:36.619Z,298
2017-08-13T09:29:58.147Z,303
2017-08-13T09:30:59.581Z,326
2017-08-13T09:32:21.070Z,315
2017-08-13T09:33:22.487Z,348
2017-08-13T09:34:45.006Z,393
2017-08-13T09:35:46.427Z,405
2017-08-13T09:37:07.933Z,399
2017-08-13T09:38:09.351Z,410
2017-08-13T09:39:30.880Z,393
2017-08-13T09:40:32.300Z,405
2017-08-13T09:41:53.816Z,444
2017-08-13T09:42:55.233Z,466
2017-08-13T09:44:17.461Z,427
2017-08-13T09:45:18.912Z,382
2017-08-13T09:46:41.401Z,393
2017-08-13T09:47:42.816Z,331
2017-08-13T09:49:04.468Z,281
2017-08-13T09:50:05.890Z,270
2017-08-13T09:51:27.396Z,241
2017-08-13T09:52:28.813Z,241
2017-08-13T09:53:50.467Z,258
2017-08-13T09:54:51.886Z,286
2017-08-13T09:56:13.392Z,270
2017-08-13T09:57:14.816Z,253
2017-08-13T09:58:36.467Z,241
2017-08-13T09:59:37.887Z,241
2017-08-13T10:00:59.405Z,225
2017-08-13T10:02:00.825Z,236
2017-08-13T10:03:22.332Z,286
2017-08-13T10:04:23.752Z,303
2017-08-13T10:05:45.283Z,315
2017-08-13T10:06:46.699Z,320
2017-08-13T10:08:08.213Z,331
2017-08-13T10:09:09.627Z,326
2017-08-13T10:10:31.154Z,354
2017-08-13T10:11:32.576Z,354
2017-08-13T10:12:54.085Z,331
2017-08-13T10:13:55.503Z,360
2017-08-13T10:15:17.213Z,326
2017-08-13T10:16:18.633Z,309
2017-08-13T10:17:40.141Z,292
2017-08-13T10:18:41.564Z,275
2017-08-13T10:20:03.088Z,298
2017-08-13T10:21:04.509Z,326
2017-08-13T10:22:26.019Z,365
2017-08-13T10:23:27.436Z,455
2017-08-13T10:24:48.968Z,421
2017-08-13T10:25:50.387Z,416
2017-08-13T10:27:11.900Z,450
2017-08-13T10:28:13.319Z,455
2017-08-13T10:29:34.845Z,371
2017-08-13T10:30:36.272Z,281
2017-08-13T10:31:57.905Z,247
2017-08-13T10:32:59.325Z,286
2017-08-13T10:34:20.851Z,354
2017-08-13T10:35:22.271Z,399
2017-08-13T10:36:43.778Z,416
2017-08-13T10:37:45.194Z,376
2017-08-13T10:39:06.723Z,354
2017-08-13T10:40:08.145Z,354
2017-08-13T10:41:29.656Z,348
2017-08-13T10:42:31.074Z,343
2017-08-13T10:43:52.607Z,371
2017-08-13T10:44:54.026Z,399
2017-08-13T10:46:15.551Z,348
2017-08-13T10:47:16.973Z,320
2017-08-13T10:48:38.484Z,320
2017-08-13T10:49:39.906Z,371
2017-08-13T10:51:01.446Z,405
2017-08-13T10:52:02.872Z,371
2017-08-13T10:53:24.384Z,315
2017-08-13T10:54:25.803Z,298
2017-08-13T10:55:47.341Z,264
2017-08-13T10:56:48.759Z,236
2017-08-13T10:58:10.278Z,230
2017-08-13T10:59:11.697Z,225
2017-08-13T11:00:33.227Z,253
2017-08-13T11:01:34.704Z,264
2017-08-13T11:02:56.218Z,264
2017-08-13T11:03:57.635Z,264
2017-08-13T11:05:19.190Z,303
2017-08-13T11:06:20.619Z,365
2017-08-13T11:07:42.197Z,410
2017-08-13T11:08:43.698Z,399
2017-08-13T11:10:05.227Z,405
2017-08-13T11:11:06.733Z,410
2017-08-13T11:12:28.352Z,365
2017-08-13T11:13:29.842Z,331
2017-08-13T11:14:51.486Z,315
2017-08-13T11:15:52.907Z,298
2017-08-13T11:17:14.426Z,298
2017-08-13T11:18:15.847Z,303
2017-08-13T11:19:37.441Z,303
2017-08-13T11:20:39.186Z,264
2017-08-13T11:22:00.743Z,241
2017-08-13T11:23:02.173Z,230
2017-08-13T11:24:23.737Z,225
2017-08-13T11:25:25.159Z,225
2017-08-13T11:26:46.695Z,230
2017-08-13T11:27:48.211Z,236
2017-08-13T11:29:09.811Z,225
2017-08-13T11:30:11.232Z,225
2017-08-13T11:31:32.788Z,219
2017-08-13T11:32:34.314Z,241
2017-08-13T11:33:56.077Z,303
2017-08-13T11:34:57.533Z,360
2017-08-13T11:36:19.048Z,399
2017-08-13T11:37:20.534Z,388
2017-08-13T11:38:42.044Z,348
2017-08-13T11:39:43.469Z,331
2017-08-13T11:41:05.384Z,365
2017-08-13T11:42:06.841Z,399
2017-08-13T11:43:28.406Z,410
2017-08-13T11:44:29.893Z,399
2017-08-13T11:45:51.423Z,455
2017-08-13T11:46:52.844Z,540
2017-08-13T11:48:14.366Z,579
2017-08-13T11:49:15.845Z,590
2017-08-13T11:50:37.402Z,579
2017-08-13T11:51:38.927Z,545
2017-08-13T11:53:00.539Z,450
2017-08-13T11:54:01.989Z,354
2017-08-13T11:55:23.545Z,253
2017-08-13T11:56:24.973Z,202
2017-08-13T11:57:46.816Z,151
2017-08-13T11:58:48.238Z,135
2017-08-13T12:00:09.858Z,129
2017-08-13T12:01:11.328Z,129
2017-08-13T12:02:32.913Z,157
2017-08-13T12:03:34.417Z,180
2017-08-13T12:04:55.949Z,213
2017-08-13T12:05:57.370Z,236
2017-08-13T12:07:18.882Z,264
2017-08-13T12:08:20.300Z,275
2017-08-13T12:09:41.830Z,303
2017-08-13T12:10:43.251Z,326
2017-08-13T12:12:05.009Z,376
2017-08-13T12:13:06.441Z,421
2017-08-13T12:14:28.058Z,472
2017-08-13T12:15:29.484Z,461
2017-08-13T12:16:51.122Z,438
2017-08-13T12:17:52.568Z,427
2017-08-13T12:19:14.153Z,421
2017-08-13T12:20:15.636Z,416
2017-08-13T12:21:37.213Z,410
2017-08-13T12:22:38.633Z,416
2017-08-13T12:24:00.181Z,399
2017-08-13T12:25:01.605Z,382
2017-08-13T12:26:23.226Z,343
2017-08-13T12:27:24.639Z,309
2017-08-13T12:28:46.296Z,281
2017-08-13T12:29:47.742Z,281
2017-08-13T12:31:09.287Z,298
2017-08-13T12:32:10.754Z,331
2017-08-13T12:33:32.263Z,365
2017-08-13T12:34:33.685Z,376
2017-08-13T12:35:55.280Z,393
2017-08-13T12:36:56.770Z,405
2017-08-13T12:38:18.286Z,393
2017-08-13T12:39:19.760Z,393
2017-08-13T12:40:41.338Z,393
2017-08-13T12:41:42.759Z,382
2017-08-13T12:43:04.298Z,365
2017-08-13T12:44:05.817Z,348
2017-08-13T12:45:27.863Z,348
2017-08-13T12:46:29.931Z,343
2017-08-13T12:47:51.518Z,326
2017-08-13T12:48:53.651Z,303
2017-08-13T12:50:15.172Z,292
2017-08-13T12:51:16.663Z,298
2017-08-13T12:52:38.889Z,326
2017-08-13T12:53:40.312Z,360
2017-08-13T12:55:01.887Z,416
2017-08-13T12:56:03.354Z,438
2017-08-13T12:57:25.005Z,466
2017-08-13T12:58:26.425Z,478
2017-08-13T12:59:47.957Z,478
2017-08-13T13:00:49.418Z,461
2017-08-13T13:02:10.999Z,438
2017-08-13T13:03:12.490Z,433
2017-08-13T13:04:34.116Z,410
2017-08-13T13:05:35.586Z,376
2017-08-13T13:06:57.111Z,331
2017-08-13T13:07:59.022Z,303
2017-08-13T13:09:20.538Z,281
2017-08-13T13:10:21.951Z,270
2017-08-13T13:11:43.694Z,270
2017-08-13T13:12:45.168Z,270
2017-08-13T13:14:06.754Z,275
2017-08-13T13:15:08.211Z,281
2017-08-13T13:16:29.741Z,292
2017-08-13T13:17:31.277Z,292
2017-08-13T13:18:52.832Z,292
2017-08-13T13:19:54.258Z,281
2017-08-13T13:21:16.209Z,264
2017-08-13T13:22:17.636Z,253
2017-08-13T13:23:39.158Z,258
2017-08-13T13:24:40.665Z,270
2017-08-13T13:26:02.200Z,281
2017-08-13T13:27:03.620Z,298
2017-08-13T13:28:25.214Z,303
2017-08-13T13:29:26.632Z,331
2017-08-13T13:30:48.267Z,382
2017-08-13T13:31:49.685Z,410
2017-08-13T13:33:11.201Z,461
2017-08-13T13:34:12.732Z,495
2017-08-13T13:35:34.377Z,483
2017-08-13T13:36:35.799Z,466
2017-08-13T13:37:57.566Z,455
2017-08-13T13:38:59.005Z,455
2017-08-13T13:40:20.711Z,450
2017-08-13T13:41:22.237Z,438
2017-08-13T13:42:43.948Z,421
2017-08-13T13:43:45.386Z,405
2017-08-13T13:45:07.158Z,382
2017-08-13T13:46:08.615Z,382
2017-08-13T13:47:30.206Z,376
2017-08-13T13:48:31.645Z,348
2017-08-13T13:49:53.171Z,326
2017-08-13T13:50:54.589Z,315
2017-08-13T13:52:16.105Z,298
2017-08-13T13:53:17.531Z,281
2017-08-13T13:54:39.061Z,247
2017-08-13T13:55:40.482Z,230
2017-08-13T13:57:02.026Z,213
2017-08-13T13:58:03.498Z,208
2017-08-13T13:59:25.096Z,174
2017-08-13T14:00:26.517Z,157
2017-08-13T14:01:48.083Z,123
2017-08-13T14:02:49.520Z,106
2017-08-13T14:04:11.054Z,78
2017-08-13T14:05:12.595Z,67
2017-08-13T14:06:34.133Z,56
2017-08-13T14:07:35.556Z,50
2017-08-13T14:08:57.067Z,45
2017-08-13T14:09:58.483Z,45
2017-08-13T14:11:20.109Z,50
2017-08-13T14:12:21.526Z,50
2017-08-13T14:13:43.044Z,50
2017-08-13T14:14:44.467Z,50
2017-08-13T14:16:05.991Z,56
2017-08-13T14:17:07.417Z,61
2017-08-13T14:18:28.945Z,73
2017-08-13T14:19:30.361Z,78
2017-08-13T14:20:51.885Z,90
2017-08-13T14:21:53.311Z,95
2017-08-13T14:23:14.823Z,112
2017-08-13T14:24:16.236Z,129
2017-08-13T14:25:37.771Z,151
2017-08-13T14:26:39.194Z,180
2017-08-13T14:28:00.703Z,213
2017-08-13T14:29:02.120Z,258
2017-08-13T14:30:23.663Z,298
2017-08-13T14:31:25.065Z,298
2017-08-13T14:32:46.583Z,309
2017-08-13T14:33:48.004Z,309
2017-08-13T14:35:09.527Z,337
2017-08-13T14:36:10.954Z,348
2017-08-13T14:37:32.461Z,365
2017-08-13T14:38:33.877Z,371
2017-08-13T14:39:55.402Z,360
2017-08-13T14:40:56.823Z,331
2017-08-13T14:42:18.567Z,298
2017-08-13T14:43:20.004Z,303
2017-08-13T14:44:41.671Z,309
2017-08-13T14:45:43.190Z,315
2017-08-13T14:47:05.225Z,320
2017-08-13T14:48:06.665Z,326
2017-08-13T14:49:28.173Z,326
2017-08-13T14:50:29.592Z,331
2017-08-13T14:51:51.126Z,343
2017-08-13T14:52:52.560Z,348
2017-08-13T14:54:14.073Z,331
2017-08-13T14:55:15.492Z,326
2017-08-13T14:56:37.048Z,326
2017-08-13T14:57:38.470Z,320
2017-08-13T14:59:00.980Z,309
2017-08-13T15:00:02.399Z,292
2017-08-13T15:01:23.932Z,281
2017-08-13T15:02:25.349Z,275
2017-08-13T15:03:46.966Z,270
2017-08-13T15:04:48.389Z,275
2017-08-13T15:06:09.991Z,298
2017-08-13T15:07:11.410Z,309
2017-08-13T15:08:32.936Z,320
2017-08-13T15:09:34.351Z,337
2017-08-13T15:10:55.881Z,348
2017-08-13T15:11:57.300Z,365
2017-08-13T15:13:18.810Z,393
2017-08-13T15:14:20.231Z,393
2017-08-13T15:15:41.928Z,365
2017-08-13T15:16:43.389Z,343
2017-08-13T15:18:05.390Z,315
2017-08-13T15:19:07.262Z,303
2017-08-13T15:20:28.799Z,315
2017-08-13T15:21:30.218Z,326
2017-08-13T15:22:52.725Z,331
2017-08-13T15:23:54.145Z,331
2017-08-13T15:25:15.672Z,326
2017-08-13T15:26:17.090Z,326
2017-08-13T15:27:38.597Z,337
2017-08-13T15:28:40.020Z,354
2017-08-13T15:30:01.523Z,360
2017-08-13T15:31:02.941Z,360
2017-08-13T15:32:24.472Z,354
2017-08-13T15:33:25.892Z,343
2017-08-13T15:34:47.400Z,315
2017-08-13T15:35:48.820Z,303
2017-08-13T15:37:10.346Z,275
2017-08-13T15:38:11.769Z,264
2017-08-13T15:39:33.280Z,286
2017-08-13T15:40:34.696Z,309
2017-08-13T15:41:56.224Z,298
2017-08-13T15:42:57.645Z,270
2017-08-13T15:44:19.156Z,230
2017-08-13T15:45:20.574Z,225
2017-08-13T15:46:42.105Z,236
2017-08-13T15:47:43.524Z,247
2017-08-13T15:49:05.034Z,275
2017-08-13T15:50:06.454Z,286
2017-08-13T15:51:27.981Z,292
2017-08-13T15:52:29.402Z,292
2017-08-13T15:53:51.051Z,275
2017-08-13T15:54:52.470Z,258
2017-08-13T15:56:14.056Z,247
2017-08-13T15:57:15.521Z,236
2017-08-13T15:58:37.037Z,236
2017-08-13T15:59:38.456Z,247
2017-08-13T16:01:00.000Z,258
2017-08-13T16:02:01.699Z,258
2017-08-13T16:03:23.210Z,253
2017-08-13T16:04:24.626Z,247
2017-08-13T16:05:46.158Z,241
2017-08-13T16:06:47.579Z,236
2017-08-13T16:08:09.097Z,230
2017-08-13T16:09:10.516Z,230
2017-08-13T16:10:32.051Z,236
2017-08-13T16:11:33.466Z,241
2017-08-13T16:12:54.979Z,241
2017-08-13T16:13:56.394Z,236
2017-08-13T16:15:17.904Z,236
2017-08-13T16:16:59.801Z,253
2017-08-13T16:18:40.683Z,247
2017-08-13T16:19:42.101Z,253
2017-08-13T16:21:03.626Z,247
2017-08-13T16:22:05.045Z,236
2017-08-13T16:23:26.556Z,225
2017-08-13T16:24:27.978Z,219
2017-08-13T16:25:49.581Z,225
2017-08-13T16:26:51.060Z,225
2017-08-13T16:28:12.584Z,213
2017-08-13T16:29:14.100Z,208
2017-08-13T16:30:35.650Z,208
2017-08-13T16:31:37.062Z,225
2017-08-13T16:32:58.574Z,236
2017-08-13T16:33:59.994Z,225
2017-08-13T16:35:21.582Z,213
2017-08-13T16:36:22.999Z,208
2017-08-13T16:37:44.525Z,196
2017-08-13T16:38:45.946Z,185
2017-08-13T16:40:07.776Z,180
2017-08-13T16:41:09.194Z,174
2017-08-13T16:42:30.723Z,180
2017-08-13T16:43:32.146Z,180
2017-08-13T16:44:54.908Z,174